sensor_id;sensor_type;location;lat;lon;timestamp;pressure;altitude;pressure_sealevel;temperature;humidity
36242;BME280;22283;42.748;12.732;2023-10-31T00:04:58;97059.72;;;16.89;100.00
36242;BME280;22283;42.748;12.732;2023-10-31T00:09:59;97060.31;;;16.99;100.00
36242;BME280;22283;42.748;12.732;2023-10-31T00:15:00;97073.97;;;17.04;100.00
36242;BME280;22283;42.748;12.732;2023-10-31T00:20:00;97095.63;;;17.09;100.00
36242;BME280;22283;42.748;12.732;2023-10-31T00:25:01;97102.59;;;17.18;100.00
36242;BME280;22283;42.748;12.732;2023-10-31T00:30:02;97132.28;;;17.24;100.00
36242;BME280;22283;42.748;12.732;2023-10-31T00:35:03;97145.31;;;17.27;100.00
36242;BME280;22283;42.748;12.732;2023-10-31T00:40:04;97164.88;;;17.42;100.00
36242;BME280;22283;42.748;12.732;2023-10-31T00:45:05;97146.47;;;17.47;100.00
36242;BME280;22283;42.748;12.732;2023-10-31T00:50:07;97155.44;;;17.54;100.00
36242;BME280;22283;42.748;12.732;2023-10-31T00:55:08;97138.94;;;17.65;100.00
36242;BME280;22283;42.748;12.732;2023-10-31T01:00:09;97146.25;;;17.72;100.00
36242;BME280;22283;42.748;12.732;2023-10-31T01:05:10;97165.81;;;17.72;100.00
36242;BME280;22283;42.748;12.732;2023-10-31T01:10:11;97182.38;;;17.76;100.00
36242;BME280;22283;42.748;12.732;2023-10-31T01:15:12;97194.84;;;17.83;100.00
36242;BME280;22283;42.748;12.732;2023-10-31T01:20:13;97210.16;;;17.89;100.00
36242;BME280;22283;42.748;12.732;2023-10-31T01:25:13;97216.94;;;18.00;100.00
36242;BME280;22283;42.748;12.732;2023-10-31T01:30:14;97201.72;;;18.01;100.00
36242;BME280;22283;42.748;12.732;2023-10-31T01:35:15;97200.88;;;18.00;100.00
36242;BME280;22283;42.748;12.732;2023-10-31T01:40:16;97183.81;;;18.01;100.00
36242;BME280;22283;42.748;12.732;2023-10-31T01:45:17;97174.22;;;18.07;100.00
36242;BME280;22283;42.748;12.732;2023-10-31T01:50:17;97163.25;;;18.16;100.00
36242;BME280;22283;42.748;12.732;2023-10-31T01:55:20;97175.09;;;18.22;100.00
36242;BME280;22283;42.748;12.732;2023-10-31T02:00:22;97196.19;;;18.17;100.00
36242;BME280;22283;42.748;12.732;2023-10-31T02:05:23;97201.94;;;18.14;100.00
36242;BME280;22283;42.748;12.732;2023-10-31T02:10:24;97224.53;;;18.11;100.00
36242;BME280;22283;42.748;12.732;2023-10-31T02:15:24;97223.59;;;18.04;100.00
36242;BME280;22283;42.748;12.732;2023-10-31T02:20:25;97232.78;;;17.87;100.00
36242;BME280;22283;42.748;12.732;2023-10-31T02:25:26;97233.13;;;17.84;99.68
36242;BME280;22283;42.748;12.732;2023-10-31T02:30:27;97226.84;;;17.77;98.38
36242;BME280;22283;42.748;12.732;2023-10-31T02:35:27;97234.53;;;17.72;96.31
36242;BME280;22283;42.748;12.732;2023-10-31T02:40:28;97234.13;;;17.60;96.51
36242;BME280;22283;42.748;12.732;2023-10-31T02:45:29;97221.94;;;17.57;97.67
36242;BME280;22283;42.748;12.732;2023-10-31T02:50:30;97208.97;;;17.46;100.00
36242;BME280;22283;42.748;12.732;2023-10-31T02:55:30;97206.00;;;17.41;100.00
36242;BME280;22283;42.748;12.732;2023-10-31T03:00:31;97225.75;;;17.40;97.90
36242;BME280;22283;42.748;12.732;2023-10-31T03:05:32;97210.03;;;17.37;96.10
36242;BME280;22283;42.748;12.732;2023-10-31T03:10:33;97215.97;;;17.24;100.00
36242;BME280;22283;42.748;12.732;2023-10-31T03:15:33;97182.91;;;16.94;100.00
36242;BME280;22283;42.748;12.732;2023-10-31T03:20:34;97181.03;;;16.63;100.00
36242;BME280;22283;42.748;12.732;2023-10-31T03:25:35;97176.75;;;16.46;100.00
36242;BME280;22283;42.748;12.732;2023-10-31T03:30:35;97197.81;;;16.33;100.00
36242;BME280;22283;42.748;12.732;2023-10-31T03:35:36;97200.78;;;16.38;100.00
36242;BME280;22283;42.748;12.732;2023-10-31T03:40:37;97214.41;;;16.67;100.00
36242;BME280;22283;42.748;12.732;2023-10-31T03:45:38;97202.63;;;16.93;100.00
36242;BME280;22283;42.748;12.732;2023-10-31T03:50:38;97198.59;;;16.97;100.00
36242;BME280;22283;42.748;12.732;2023-10-31T03:55:39;97202.97;;;16.90;100.00
36242;BME280;22283;42.748;12.732;2023-10-31T04:00:40;97186.84;;;16.75;100.00
36242;BME280;22283;42.748;12.732;2023-10-31T04:05:41;97194.53;;;16.62;100.00
36242;BME280;22283;42.748;12.732;2023-10-31T04:10:42;97187.50;;;16.69;100.00
36242;BME280;22283;42.748;12.732;2023-10-31T04:15:43;97172.97;;;16.71;100.00
36242;BME280;22283;42.748;12.732;2023-10-31T04:20:43;97175.97;;;16.77;100.00
36242;BME280;22283;42.748;12.732;2023-10-31T04:25:44;97168.47;;;16.72;100.00
36242;BME280;22283;42.748;12.732;2023-10-31T04:30:45;97183.00;;;16.69;100.00
36242;BME280;22283;42.748;12.732;2023-10-31T04:35:45;97181.00;;;16.71;100.00
36242;BME280;22283;42.748;12.732;2023-10-31T04:40:46;97171.66;;;16.67;100.00
36242;BME280;22283;42.748;12.732;2023-10-31T04:45:47;97176.19;;;16.59;100.00
36242;BME280;22283;42.748;12.732;2023-10-31T04:50:47;97167.34;;;16.58;100.00
36242;BME280;22283;42.748;12.732;2023-10-31T04:55:48;97159.47;;;16.65;100.00
36242;BME280;22283;42.748;12.732;2023-10-31T05:00:48;97167.63;;;16.80;100.00
36242;BME280;22283;42.748;12.732;2023-10-31T05:05:49;97160.59;;;16.87;100.00
36242;BME280;22283;42.748;12.732;2023-10-31T05:10:50;97158.25;;;16.84;100.00
36242;BME280;22283;42.748;12.732;2023-10-31T05:15:51;97155.44;;;16.77;100.00
36242;BME280;22283;42.748;12.732;2023-10-31T05:20:51;97164.63;;;16.83;100.00
36242;BME280;22283;42.748;12.732;2023-10-31T05:25:53;97159.19;;;16.99;100.00
36242;BME280;22283;42.748;12.732;2023-10-31T05:31:01;97161.41;;;17.10;100.00
36242;BME280;22283;42.748;12.732;2023-10-31T05:36:01;97153.66;;;17.24;99.35
36242;BME280;22283;42.748;12.732;2023-10-31T05:41:02;97146.63;;;17.31;98.61
36242;BME280;22283;42.748;12.732;2023-10-31T05:46:03;97151.06;;;17.38;98.81
36242;BME280;22283;42.748;12.732;2023-10-31T05:51:04;97183.25;;;17.45;97.56
36242;BME280;22283;42.748;12.732;2023-10-31T05:56:05;97168.44;;;17.57;95.96
36242;BME280;22283;42.748;12.732;2023-10-31T06:01:07;97173.03;;;17.72;94.46
36242;BME280;22283;42.748;12.732;2023-10-31T06:06:08;97168.31;;;17.74;93.11
36242;BME280;22283;42.748;12.732;2023-10-31T06:11:09;97164.41;;;17.84;92.07
36242;BME280;22283;42.748;12.732;2023-10-31T06:16:12;97191.81;;;17.86;91.39
36242;BME280;22283;42.748;12.732;2023-10-31T06:21:13;97177.44;;;17.87;87.54
36242;BME280;22283;42.748;12.732;2023-10-31T06:26:13;97195.53;;;18.00;86.10
36242;BME280;22283;42.748;12.732;2023-10-31T06:31:14;97221.00;;;17.96;87.03
36242;BME280;22283;42.748;12.732;2023-10-31T06:36:15;97247.75;;;17.96;85.45
36242;BME280;22283;42.748;12.732;2023-10-31T06:41:15;97247.41;;;17.99;82.79
36242;BME280;22283;42.748;12.732;2023-10-31T06:46:16;97251.66;;;18.08;81.63
36242;BME280;22283;42.748;12.732;2023-10-31T06:51:17;97272.22;;;18.31;73.72
36242;BME280;22283;42.748;12.732;2023-10-31T06:56:18;97288.47;;;18.44;76.80
36242;BME280;22283;42.748;12.732;2023-10-31T07:01:18;97269.66;;;18.52;72.61
36242;BME280;22283;42.748;12.732;2023-10-31T07:06:19;97286.88;;;18.73;70.27
36242;BME280;22283;42.748;12.732;2023-10-31T07:11:21;97279.84;;;18.72;68.68
36242;BME280;22283;42.748;12.732;2023-10-31T07:16:22;97288.09;;;18.70;67.20
36242;BME280;22283;42.748;12.732;2023-10-31T07:21:23;97288.75;;;18.87;66.34
36242;BME280;22283;42.748;12.732;2023-10-31T07:26:24;97299.81;;;19.13;62.19
36242;BME280;22283;42.748;12.732;2023-10-31T07:31:24;97303.13;;;19.15;61.63
36242;BME280;22283;42.748;12.732;2023-10-31T07:36:25;97337.31;;;19.43;59.42
36242;BME280;22283;42.748;12.732;2023-10-31T07:41:26;97354.25;;;19.44;58.93
36242;BME280;22283;42.748;12.732;2023-10-31T07:46:27;97361.09;;;19.46;59.66
36242;BME280;22283;42.748;12.732;2023-10-31T07:51:27;97372.50;;;19.48;58.65
36242;BME280;22283;42.748;12.732;2023-10-31T07:56:28;97358.50;;;19.53;57.91
36242;BME280;22283;42.748;12.732;2023-10-31T08:01:28;97380.81;;;19.38;56.84
36242;BME280;22283;42.748;12.732;2023-10-31T08:06:29;97390.25;;;19.49;57.95
36242;BME280;22283;42.748;12.732;2023-10-31T08:11:30;97394.47;;;19.58;59.06
36242;BME280;22283;42.748;12.732;2023-10-31T08:16:32;97413.25;;;19.44;58.47
36242;BME280;22283;42.748;12.732;2023-10-31T08:21:32;97411.34;;;19.37;58.84
36242;BME280;22283;42.748;12.732;2023-10-31T08:26:35;97411.50;;;19.36;58.06
36242;BME280;22283;42.748;12.732;2023-10-31T08:31:36;97422.22;;;19.36;58.01
36242;BME280;22283;42.748;12.732;2023-10-31T08:36:37;97405.97;;;19.52;56.89
36242;BME280;22283;42.748;12.732;2023-10-31T08:41:52;97411.31;;;19.82;58.11
36242;BME280;22283;42.748;12.732;2023-10-31T08:46:53;97412.22;;;19.89;56.25
36242;BME280;22283;42.748;12.732;2023-10-31T08:51:54;97424.25;;;19.93;56.47
36242;BME280;22283;42.748;12.732;2023-10-31T08:56:55;97426.94;;;19.93;56.52
36242;BME280;22283;42.748;12.732;2023-10-31T09:01:55;97435.00;;;19.93;56.39
36242;BME280;22283;42.748;12.732;2023-10-31T09:06:56;97427.19;;;19.98;57.14
36242;BME280;22283;42.748;12.732;2023-10-31T09:11:57;97450.34;;;19.99;56.55
36242;BME280;22283;42.748;12.732;2023-10-31T09:16:58;97467.69;;;19.97;56.74
36242;BME280;22283;42.748;12.732;2023-10-31T09:21:58;97473.19;;;20.10;57.16
36242;BME280;22283;42.748;12.732;2023-10-31T09:26:59;97478.66;;;20.17;57.55
36242;BME280;22283;42.748;12.732;2023-10-31T09:32:00;97482.66;;;20.42;56.58
36242;BME280;22283;42.748;12.732;2023-10-31T09:37:01;97489.50;;;20.59;54.32
36242;BME280;22283;42.748;12.732;2023-10-31T09:42:02;97501.28;;;20.80;55.14
36242;BME280;22283;42.748;12.732;2023-10-31T09:47:03;97510.16;;;20.80;55.21
36242;BME280;22283;42.748;12.732;2023-10-31T09:52:04;97501.75;;;20.90;54.28
36242;BME280;22283;42.748;12.732;2023-10-31T09:57:04;97501.31;;;21.08;55.47
36242;BME280;22283;42.748;12.732;2023-10-31T10:02:05;97503.22;;;21.14;55.28
36242;BME280;22283;42.748;12.732;2023-10-31T10:07:06;97497.22;;;21.12;55.44
36242;BME280;22283;42.748;12.732;2023-10-31T10:12:11;97501.13;;;21.09;55.54
36242;BME280;22283;42.748;12.732;2023-10-31T10:17:23;97499.81;;;20.99;56.13
36242;BME280;22283;42.748;12.732;2023-10-31T10:22:28;97488.31;;;20.90;56.30
36242;BME280;22283;42.748;12.732;2023-10-31T10:27:29;97492.63;;;20.84;56.47
36242;BME280;22283;42.748;12.732;2023-10-31T10:32:29;97484.56;;;20.84;56.30
36242;BME280;22283;42.748;12.732;2023-10-31T10:37:30;97490.25;;;20.96;55.23
36242;BME280;22283;42.748;12.732;2023-10-31T10:42:51;97487.97;;;20.72;55.64
36242;BME280;22283;42.748;12.732;2023-10-31T10:48:01;97487.28;;;20.48;56.94
36242;BME280;22283;42.748;12.732;2023-10-31T10:53:18;97476.09;;;20.30;57.09
36242;BME280;22283;42.748;12.732;2023-10-31T10:58:50;97479.63;;;20.30;56.39
36242;BME280;22283;42.748;12.732;2023-10-31T11:03:52;97483.59;;;20.34;57.54
36242;BME280;22283;42.748;12.732;2023-10-31T11:08:55;97464.13;;;20.47;56.99
36242;BME280;22283;42.748;12.732;2023-10-31T11:13:56;97475.53;;;20.71;57.06
36242;BME280;22283;42.748;12.732;2023-10-31T11:18:57;97469.28;;;20.63;56.17
36242;BME280;22283;42.748;12.732;2023-10-31T11:23:59;97470.56;;;20.68;56.40
36242;BME280;22283;42.748;12.732;2023-10-31T11:29:04;97475.16;;;20.74;56.01
36242;BME280;22283;42.748;12.732;2023-10-31T11:34:06;97479.63;;;20.88;55.24
36242;BME280;22283;42.748;12.732;2023-10-31T11:39:11;97472.22;;;20.69;56.07
36242;BME280;22283;42.748;12.732;2023-10-31T11:44:15;97473.50;;;20.73;55.61
36242;BME280;22283;42.748;12.732;2023-10-31T11:49:15;97473.94;;;20.76;56.21
36242;BME280;22283;42.748;12.732;2023-10-31T11:54:17;97469.94;;;20.94;55.51
36242;BME280;22283;42.748;12.732;2023-10-31T11:59:18;97470.34;;;20.91;55.36
36242;BME280;22283;42.748;12.732;2023-10-31T12:04:22;97460.69;;;20.75;55.01
36242;BME280;22283;42.748;12.732;2023-10-31T12:09:23;97461.19;;;20.85;55.53
36242;BME280;22283;42.748;12.732;2023-10-31T12:14:24;97470.09;;;21.13;54.46
36242;BME280;22283;42.748;12.732;2023-10-31T12:19:25;97490.66;;;21.21;54.87
36242;BME280;22283;42.748;12.732;2023-10-31T12:24:26;97469.22;;;21.06;53.44
36242;BME280;22283;42.748;12.732;2023-10-31T12:29:26;97475.78;;;20.97;54.17
36242;BME280;22283;42.748;12.732;2023-10-31T12:34:27;97482.03;;;21.04;53.89
36242;BME280;22283;42.748;12.732;2023-10-31T12:39:28;97481.97;;;20.98;52.61
36242;BME280;22283;42.748;12.732;2023-10-31T12:44:29;97490.72;;;21.28;52.57
36242;BME280;22283;42.748;12.732;2023-10-31T12:49:30;97481.38;;;21.02;53.63
36242;BME280;22283;42.748;12.732;2023-10-31T12:54:35;97475.59;;;20.99;53.64
36242;BME280;22283;42.748;12.732;2023-10-31T12:59:37;97472.78;;;20.85;54.27
36242;BME280;22283;42.748;12.732;2023-10-31T13:04:38;97475.25;;;21.08;52.84
36242;BME280;22283;42.748;12.732;2023-10-31T13:09:39;97482.50;;;21.08;51.94
36242;BME280;22283;42.748;12.732;2023-10-31T13:14:41;97485.50;;;20.98;52.53
36242;BME280;22283;42.748;12.732;2023-10-31T13:19:42;97492.81;;;21.04;52.00
36242;BME280;22283;42.748;12.732;2023-10-31T13:24:42;97495.53;;;20.83;53.43
36242;BME280;22283;42.748;12.732;2023-10-31T13:29:43;97499.34;;;20.95;53.43
36242;BME280;22283;42.748;12.732;2023-10-31T13:34:46;97495.38;;;20.70;54.10
36242;BME280;22283;42.748;12.732;2023-10-31T13:39:47;97502.47;;;20.56;53.70
36242;BME280;22283;42.748;12.732;2023-10-31T13:44:47;97526.28;;;20.59;53.21
36242;BME280;22283;42.748;12.732;2023-10-31T13:49:48;97529.59;;;20.46;52.38
36242;BME280;22283;42.748;12.732;2023-10-31T13:54:49;97535.47;;;20.35;52.67
36242;BME280;22283;42.748;12.732;2023-10-31T13:59:50;97553.38;;;20.13;52.33
36242;BME280;22283;42.748;12.732;2023-10-31T14:04:51;97557.19;;;19.89;53.44
36242;BME280;22283;42.748;12.732;2023-10-31T14:09:52;97568.28;;;19.71;54.76
36242;BME280;22283;42.748;12.732;2023-10-31T14:14:53;97578.59;;;19.59;55.88
36242;BME280;22283;42.748;12.732;2023-10-31T14:19:54;97589.78;;;19.48;56.22
36242;BME280;22283;42.748;12.732;2023-10-31T14:24:54;97588.00;;;19.40;56.33
36242;BME280;22283;42.748;12.732;2023-10-31T14:29:55;97585.13;;;19.42;56.49
36242;BME280;22283;42.748;12.732;2023-10-31T14:34:56;97583.47;;;19.41;56.42
36242;BME280;22283;42.748;12.732;2023-10-31T14:39:56;97587.63;;;19.29;55.71
36242;BME280;22283;42.748;12.732;2023-10-31T14:44:57;97574.63;;;19.17;55.84
36242;BME280;22283;42.748;12.732;2023-10-31T14:49:57;97577.13;;;18.96;55.75
36242;BME280;22283;42.748;12.732;2023-10-31T14:54:58;97590.09;;;18.84;55.82
36242;BME280;22283;42.748;12.732;2023-10-31T14:59:59;97601.41;;;18.72;56.10
36242;BME280;22283;42.748;12.732;2023-10-31T15:05:00;97602.09;;;18.65;56.40
36242;BME280;22283;42.748;12.732;2023-10-31T15:10:03;97606.47;;;18.58;56.72
36242;BME280;22283;42.748;12.732;2023-10-31T15:15:04;97628.28;;;18.47;57.48
36242;BME280;22283;42.748;12.732;2023-10-31T15:20:05;97627.69;;;18.29;58.04
36242;BME280;22283;42.748;12.732;2023-10-31T15:25:10;97622.72;;;18.09;59.54
36242;BME280;22283;42.748;12.732;2023-10-31T15:30:10;97637.84;;;17.94;60.77
36242;BME280;22283;42.748;12.732;2023-10-31T15:35:11;97643.19;;;17.78;61.98
36242;BME280;22283;42.748;12.732;2023-10-31T15:40:12;97656.56;;;17.61;63.23
36242;BME280;22283;42.748;12.732;2023-10-31T15:45:13;97648.72;;;17.43;64.43
36242;BME280;22283;42.748;12.732;2023-10-31T15:50:15;97655.72;;;17.28;64.73
36242;BME280;22283;42.748;12.732;2023-10-31T15:55:16;97658.06;;;17.07;66.17
36242;BME280;22283;42.748;12.732;2023-10-31T16:00:16;97643.78;;;16.82;67.34
36242;BME280;22283;42.748;12.732;2023-10-31T16:05:17;97651.72;;;16.65;69.51
36242;BME280;22283;42.748;12.732;2023-10-31T16:10:18;97670.38;;;16.49;71.31
36242;BME280;22283;42.748;12.732;2023-10-31T16:15:24;97671.66;;;16.37;72.39
36242;BME280;22283;42.748;12.732;2023-10-31T16:20:24;97678.78;;;16.28;72.97
36242;BME280;22283;42.748;12.732;2023-10-31T16:25:25;97687.91;;;16.17;74.00
36242;BME280;22283;42.748;12.732;2023-10-31T16:30:26;97704.69;;;16.10;74.94
36242;BME280;22283;42.748;12.732;2023-10-31T16:35:26;97709.38;;;16.08;74.72
36242;BME280;22283;42.748;12.732;2023-10-31T16:40:27;97717.19;;;16.09;74.70
36242;BME280;22283;42.748;12.732;2023-10-31T16:45:28;97741.81;;;16.03;74.86
36242;BME280;22283;42.748;12.732;2023-10-31T16:50:28;97748.88;;;16.04;74.83
36242;BME280;22283;42.748;12.732;2023-10-31T16:55:31;97750.16;;;16.00;75.42
36242;BME280;22283;42.748;12.732;2023-10-31T17:00:32;97739.44;;;15.92;76.03
36242;BME280;22283;42.748;12.732;2023-10-31T17:05:32;97730.50;;;15.83;76.05
36242;BME280;22283;42.748;12.732;2023-10-31T17:10:34;97739.16;;;15.77;76.43
36242;BME280;22283;42.748;12.732;2023-10-31T17:15:35;97750.94;;;15.74;76.57
36242;BME280;22283;42.748;12.732;2023-10-31T17:20:36;97757.44;;;15.72;77.28
36242;BME280;22283;42.748;12.732;2023-10-31T17:25:37;97766.88;;;15.66;77.55
36242;BME280;22283;42.748;12.732;2023-10-31T17:30:39;97785.53;;;15.66;78.09
36242;BME280;22283;42.748;12.732;2023-10-31T17:35:40;97814.06;;;15.66;78.30
36242;BME280;22283;42.748;12.732;2023-10-31T17:40:41;97824.16;;;15.62;78.93
36242;BME280;22283;42.748;12.732;2023-10-31T17:45:43;97838.31;;;15.63;79.38
36242;BME280;22283;42.748;12.732;2023-10-31T17:50:43;97848.16;;;15.62;80.58
36242;BME280;22283;42.748;12.732;2023-10-31T17:55:45;97851.03;;;15.51;81.79
36242;BME280;22283;42.748;12.732;2023-10-31T18:00:46;97851.84;;;15.34;82.63
36242;BME280;22283;42.748;12.732;2023-10-31T18:05:47;97847.28;;;15.16;83.71
36242;BME280;22283;42.748;12.732;2023-10-31T18:10:47;97848.19;;;15.07;84.51
36242;BME280;22283;42.748;12.732;2023-10-31T18:15:48;97857.50;;;14.93;84.35
36242;BME280;22283;42.748;12.732;2023-10-31T18:20:51;97853.44;;;14.89;85.56
36242;BME280;22283;42.748;12.732;2023-10-31T18:25:53;97854.72;;;14.85;86.59
36242;BME280;22283;42.748;12.732;2023-10-31T18:30:56;97855.03;;;14.72;87.95
36242;BME280;22283;42.748;12.732;2023-10-31T18:35:57;97858.59;;;14.54;89.48
36242;BME280;22283;42.748;12.732;2023-10-31T18:40:58;97864.34;;;14.49;90.67
36242;BME280;22283;42.748;12.732;2023-10-31T18:45:58;97856.63;;;14.46;91.81
36242;BME280;22283;42.748;12.732;2023-10-31T18:50:59;97867.97;;;14.58;90.43
36242;BME280;22283;42.748;12.732;2023-10-31T18:56:00;97870.34;;;14.61;90.58
36242;BME280;22283;42.748;12.732;2023-10-31T19:01:00;97894.28;;;14.70;89.63
36242;BME280;22283;42.748;12.732;2023-10-31T19:06:02;97911.38;;;14.78;88.65
36242;BME280;22283;42.748;12.732;2023-10-31T19:11:04;97904.75;;;14.91;87.45
36242;BME280;22283;42.748;12.732;2023-10-31T19:16:05;97915.41;;;14.91;88.42
36242;BME280;22283;42.748;12.732;2023-10-31T19:21:06;97923.75;;;14.59;90.50
36242;BME280;22283;42.748;12.732;2023-10-31T19:26:07;97934.25;;;14.51;91.02
36242;BME280;22283;42.748;12.732;2023-10-31T19:31:08;97947.25;;;14.35;92.71
36242;BME280;22283;42.748;12.732;2023-10-31T19:36:09;97960.16;;;14.30;93.18
36242;BME280;22283;42.748;12.732;2023-10-31T19:41:10;97952.59;;;14.35;93.55
36242;BME280;22283;42.748;12.732;2023-10-31T19:46:10;97962.09;;;14.47;94.29
36242;BME280;22283;42.748;12.732;2023-10-31T19:51:11;97964.91;;;14.36;95.22
36242;BME280;22283;42.748;12.732;2023-10-31T19:56:20;97983.38;;;14.27;96.33
36242;BME280;22283;42.748;12.732;2023-10-31T20:01:21;97997.94;;;14.14;96.96
36242;BME280;22283;42.748;12.732;2023-10-31T20:06:22;97993.16;;;13.98;98.71
36242;BME280;22283;42.748;12.732;2023-10-31T20:11:24;98001.84;;;14.00;98.57
36242;BME280;22283;42.748;12.732;2023-10-31T20:16:25;98008.28;;;14.07;98.52
36242;BME280;22283;42.748;12.732;2023-10-31T20:21:26;98003.53;;;14.11;98.08
36242;BME280;22283;42.748;12.732;2023-10-31T20:26:28;98015.03;;;14.11;99.07
36242;BME280;22283;42.748;12.732;2023-10-31T20:31:29;98014.47;;;14.17;99.89
36242;BME280;22283;42.748;12.732;2023-10-31T20:36:29;98020.34;;;14.21;100.00
36242;BME280;22283;42.748;12.732;2023-10-31T20:41:30;98040.00;;;14.30;100.00
36242;BME280;22283;42.748;12.732;2023-10-31T20:46:31;98037.72;;;14.25;100.00
36242;BME280;22283;42.748;12.732;2023-10-31T20:51:32;98036.47;;;14.19;100.00
36242;BME280;22283;42.748;12.732;2023-10-31T20:56:33;98052.44;;;14.19;100.00
36242;BME280;22283;42.748;12.732;2023-10-31T21:01:34;98053.94;;;14.12;100.00
36242;BME280;22283;42.748;12.732;2023-10-31T21:06:34;98052.78;;;14.05;100.00
36242;BME280;22283;42.748;12.732;2023-10-31T21:11:36;98065.94;;;13.97;100.00
36242;BME280;22283;42.748;12.732;2023-10-31T21:16:37;98062.31;;;13.98;100.00
36242;BME280;22283;42.748;12.732;2023-10-31T21:21:38;98060.91;;;13.94;100.00
36242;BME280;22283;42.748;12.732;2023-10-31T21:26:39;98068.44;;;13.89;100.00
36242;BME280;22283;42.748;12.732;2023-10-31T21:31:39;98085.63;;;13.85;100.00
36242;BME280;22283;42.748;12.732;2023-10-31T21:36:40;98081.47;;;13.92;100.00
36242;BME280;22283;42.748;12.732;2023-10-31T21:41:44;98071.53;;;13.94;100.00
36242;BME280;22283;42.748;12.732;2023-10-31T21:46:45;98080.22;;;13.96;100.00
36242;BME280;22283;42.748;12.732;2023-10-31T21:51:48;98081.06;;;13.96;100.00
36242;BME280;22283;42.748;12.732;2023-10-31T21:56:49;98093.38;;;13.97;100.00
36242;BME280;22283;42.748;12.732;2023-10-31T22:01:49;98098.84;;;13.96;100.00
36242;BME280;22283;42.748;12.732;2023-10-31T22:06:51;98096.19;;;13.96;100.00
36242;BME280;22283;42.748;12.732;2023-10-31T22:11:52;98088.91;;;13.98;100.00
36242;BME280;22283;42.748;12.732;2023-10-31T22:16:53;98093.94;;;14.01;100.00
36242;BME280;22283;42.748;12.732;2023-10-31T22:21:53;98082.72;;;13.88;100.00
36242;BME280;22283;42.748;12.732;2023-10-31T22:26:54;98093.88;;;13.82;100.00
36242;BME280;22283;42.748;12.732;2023-10-31T22:31:55;98091.31;;;13.70;100.00
36242;BME280;22283;42.748;12.732;2023-10-31T22:36:55;98098.22;;;13.52;100.00
36242;BME280;22283;42.748;12.732;2023-10-31T22:41:57;98087.31;;;13.34;100.00
36242;BME280;22283;42.748;12.732;2023-10-31T22:46:57;98104.06;;;13.25;100.00
36242;BME280;22283;42.748;12.732;2023-10-31T22:51:58;98114.84;;;13.12;100.00
36242;BME280;22283;42.748;12.732;2023-10-31T22:56:59;98120.72;;;12.95;100.00
36242;BME280;22283;42.748;12.732;2023-10-31T23:02:00;98113.72;;;12.94;100.00
36242;BME280;22283;42.748;12.732;2023-10-31T23:07:00;98121.19;;;13.00;100.00
36242;BME280;22283;42.748;12.732;2023-10-31T23:12:01;98119.13;;;13.03;100.00
36242;BME280;22283;42.748;12.732;2023-10-31T23:17:02;98113.66;;;13.05;100.00
36242;BME280;22283;42.748;12.732;2023-10-31T23:22:03;98115.69;;;13.13;100.00
36242;BME280;22283;42.748;12.732;2023-10-31T23:27:04;98124.75;;;13.10;100.00
36242;BME280;22283;42.748;12.732;2023-10-31T23:32:05;98124.50;;;13.13;100.00
36242;BME280;22283;42.748;12.732;2023-10-31T23:37:05;98118.41;;;13.22;100.00
36242;BME280;22283;42.748;12.732;2023-10-31T23:42:06;98122.66;;;13.25;100.00
36242;BME280;22283;42.748;12.732;2023-10-31T23:47:07;98129.78;;;13.24;100.00
36242;BME280;22283;42.748;12.732;2023-10-31T23:52:09;98118.09;;;13.16;100.00
36242;BME280;22283;42.748;12.732;2023-10-31T23:57:09;98133.19;;;13.15;100.00
